Kyokusho Maru — JL6605 — position and weather

sailwx.info

Track history (hours):
 
Tides and Currents Weather Stations Pressure Air Temp Water Temp Dewpoint Dewpoint Depression Visibility Wind Speed Wind Dir Waves Ship Positions

Kyokusho Maru

Last reported at 2016-Feb-11 09:14 UTC. Time now 2016-Feb-11 21:14 UTC.
Position N 34°35' E 134°52'.

Length 77 m; draft 5.4 m.

Type: Tanker. MMSI: 431501667.

Date/timePositionNaut miles runAvg speedWind from/ knotsBaromVisibWave heightAir tempDewpointWater temp
2016-Feb-11 09:14N 34°35' E 134°52'7 9.6
2016-Feb-11 08:32N 34°38' E 134°60'6 6.4
2016-Feb-11 07:33N 34°33' E 135°05'1010.2
2016-Feb-11 06:33N 34°23' E 135°02'9 8.5
2016-Feb-11 05:33N 34°15' E 135°00'10 1.9
2016-Feb-11 00:22N 34°07' E 135°08'2 2.0
2016-Feb-10 23:29N 34°08' E 135°06'0 0.0
2016-Feb-10 22:32N 34°08' E 135°06'0 0.0
2016-Feb-10 21:32N 34°08' E 135°06'0 0.0
2016-Feb-10 20:32N 34°08' E 135°06'0 0.0
2016-Feb-10 19:29N 34°08' E 135°06'0 0.0
2016-Feb-10 18:32N 34°08' E 135°06'0 0.0
2016-Feb-10 17:32N 34°08' E 135°06'0 0.0
2016-Feb-10 16:32N 34°08' E 135°06'0 0.0
2016-Feb-10 15:29N 34°08' E 135°06'0 0.0
2016-Feb-10 14:29N 34°08' E 135°06'0 0.0
2016-Feb-10 13:32N 34°08' E 135°06'0 0.0
2016-Feb-10 12:14N 34°08' E 135°06'0 0.0
2016-Feb-10 11:23N 34°08' E 135°06'0 0.0
2016-Feb-10 10:26N 34°08' E 135°06'0 0.0
2016-Feb-10 09:32N 34°08' E 135°06'8 7.8
2016-Feb-10 08:29N 34°07' E 134°56'6 0.3
2016-Feb-09 08:32N 34°08' E 135°04'3 0.6
2016-Feb-09 03:31N 34°07' E 135°08'2 2.4
2016-Feb-09 02:33N 34°09' E 135°08'1 0.9
2016-Feb-09 01:33N 34°10' E 135°09'0 0.1
2016-Feb-09 00:33N 34°10' E 135°09'0 0.1
2016-Feb-08 23:33N 34°10' E 135°09'0 0.0
2016-Feb-08 22:33N 34°10' E 135°09'0 0.0
2016-Feb-08 21:33N 34°10' E 135°09'0 0.0
2016-Feb-08 20:33N 34°10' E 135°09'0 0.0
2016-Feb-08 19:30N 34°10' E 135°09'0 0.1
2016-Feb-08 18:30N 34°10' E 135°09'0 0.1
2016-Feb-08 17:33N 34°10' E 135°09'0 0.0
2016-Feb-08 16:33N 34°10' E 135°09'0 0.1
2016-Feb-08 15:33N 34°10' E 135°09'0 0.0
2016-Feb-08 14:30N 34°10' E 135°09'0 0.0
2016-Feb-08 13:33N 34°10' E 135°09'0 0.1
2016-Feb-08 12:33N 34°10' E 135°09'0 0.0
2016-Feb-08 11:33N 34°10' E 135°09'1010.0
2016-Feb-08 10:33N 34°16' E 134°59'1111.4
2016-Feb-08 09:33N 34°27' E 135°01'1010.1
2016-Feb-08 08:33N 34°37' E 135°01'  
2016-Feb-03 02:33N 34°37' E 135°02'10 9.0
2016-Feb-03 01:29N 34°27' E 135°04'  
Track history (hours):
 
Tides and Currents Weather Stations Pressure Air Temp Water Temp Dewpoint Dewpoint Depression Visibility Wind Speed Wind Dir Waves Ship Positions

Kyokusho Maru

Last reported at 2016-Feb-11 09:14 UTC. Time now 2016-Feb-11 21:14 UTC.
Position N 34°35' E 134°52'.

Length 77 m; draft 5.4 m.

Type: Tanker. MMSI: 431501667.

Date/timePositionNaut miles runAvg speedWind from/ knotsBaromVisibWave heightAir tempDewpointWater temp
2016-Feb-11 09:14N 34°35' E 134°52'7 9.6
2016-Feb-11 08:32N 34°38' E 134°60'6 6.4
2016-Feb-11 07:33N 34°33' E 135°05'1010.2
2016-Feb-11 06:33N 34°23' E 135°02'9 8.5
2016-Feb-11 05:33N 34°15' E 135°00'10 1.9
2016-Feb-11 00:22N 34°07' E 135°08'2 2.0
2016-Feb-10 23:29N 34°08' E 135°06'0 0.0
2016-Feb-10 22:32N 34°08' E 135°06'0 0.0
2016-Feb-10 21:32N 34°08' E 135°06'0 0.0
2016-Feb-10 20:32N 34°08' E 135°06'0 0.0
2016-Feb-10 19:29N 34°08' E 135°06'0 0.0
2016-Feb-10 18:32N 34°08' E 135°06'0 0.0
2016-Feb-10 17:32N 34°08' E 135°06'0 0.0
2016-Feb-10 16:32N 34°08' E 135°06'0 0.0
2016-Feb-10 15:29N 34°08' E 135°06'0 0.0
2016-Feb-10 14:29N 34°08' E 135°06'0 0.0
2016-Feb-10 13:32N 34°08' E 135°06'0 0.0
2016-Feb-10 12:14N 34°08' E 135°06'0 0.0
2016-Feb-10 11:23N 34°08' E 135°06'0 0.0
2016-Feb-10 10:26N 34°08' E 135°06'0 0.0
2016-Feb-10 09:32N 34°08' E 135°06'8 7.8
2016-Feb-10 08:29N 34°07' E 134°56'6 0.3
2016-Feb-09 08:32N 34°08' E 135°04'3 0.6
2016-Feb-09 03:31N 34°07' E 135°08'2 2.4
2016-Feb-09 02:33N 34°09' E 135°08'1 0.9
2016-Feb-09 01:33N 34°10' E 135°09'0 0.1
2016-Feb-09 00:33N 34°10' E 135°09'0 0.1
2016-Feb-08 23:33N 34°10' E 135°09'0 0.0
2016-Feb-08 22:33N 34°10' E 135°09'0 0.0
2016-Feb-08 21:33N 34°10' E 135°09'0 0.0
2016-Feb-08 20:33N 34°10' E 135°09'0 0.0
2016-Feb-08 19:30N 34°10' E 135°09'0 0.1
2016-Feb-08 18:30N 34°10' E 135°09'0 0.1
2016-Feb-08 17:33N 34°10' E 135°09'0 0.0
2016-Feb-08 16:33N 34°10' E 135°09'0 0.1
2016-Feb-08 15:33N 34°10' E 135°09'0 0.0
2016-Feb-08 14:30N 34°10' E 135°09'0 0.0
2016-Feb-08 13:33N 34°10' E 135°09'0 0.1
2016-Feb-08 12:33N 34°10' E 135°09'0 0.0
2016-Feb-08 11:33N 34°10' E 135°09'1010.0
2016-Feb-08 10:33N 34°16' E 134°59'1111.4
2016-Feb-08 09:33N 34°27' E 135°01'1010.1
2016-Feb-08 08:33N 34°37' E 135°01'  
2016-Feb-03 02:33N 34°37' E 135°02'10 9.0
2016-Feb-03 01:29N 34°27' E 135°04'  

Dump ship's entire track history